sensor_id;sensor_type;location;lat;lon;timestamp;temperature;humidity
11043;DHT22;5574;48.786;10.120;2023-04-01T00:02:21;8.70;99.90
11043;DHT22;5574;48.786;10.120;2023-04-01T00:04:48;8.80;99.90
11043;DHT22;5574;48.786;10.120;2023-04-01T00:07:15;8.80;99.90
11043;DHT22;5574;48.786;10.120;2023-04-01T00:09:42;8.80;99.90
11043;DHT22;5574;48.786;10.120;2023-04-01T00:12:08;8.70;99.90
11043;DHT22;5574;48.786;10.120;2023-04-01T00:14:35;8.80;99.90
11043;DHT22;5574;48.786;10.120;2023-04-01T00:17:03;8.80;99.90
11043;DHT22;5574;48.786;10.120;2023-04-01T00:19:30;8.80;99.90
11043;DHT22;5574;48.786;10.120;2023-04-01T00:21:58;8.80;99.90
11043;DHT22;5574;48.786;10.120;2023-04-01T00:24:24;8.80;99.90
11043;DHT22;5574;48.786;10.120;2023-04-01T00:26:51;8.80;99.90
11043;DHT22;5574;48.786;10.120;2023-04-01T00:29:18;8.80;99.90
11043;DHT22;5574;48.786;10.120;2023-04-01T00:31:44;8.80;99.90
11043;DHT22;5574;48.786;10.120;2023-04-01T00:34:12;8.80;99.90
11043;DHT22;5574;48.786;10.120;2023-04-01T00:36:39;8.80;99.90
11043;DHT22;5574;48.786;10.120;2023-04-01T00:39:06;8.80;99.90
11043;DHT22;5574;48.786;10.120;2023-04-01T00:41:32;8.90;99.90
11043;DHT22;5574;48.786;10.120;2023-04-01T00:44:17;8.90;99.90
11043;DHT22;5574;48.786;10.120;2023-04-01T00:46:45;8.90;99.90
11043;DHT22;5574;48.786;10.120;2023-04-01T00:49:14;8.90;99.90
11043;DHT22;5574;48.786;10.120;2023-04-01T00:51:43;8.90;99.90
11043;DHT22;5574;48.786;10.120;2023-04-01T00:54:11;8.90;99.90
11043;DHT22;5574;48.786;10.120;2023-04-01T00:56:43;8.90;99.90
11043;DHT22;5574;48.786;10.120;2023-04-01T00:59:18;8.90;99.90
11043;DHT22;5574;48.786;10.120;2023-04-01T01:01:46;8.90;99.90
11043;DHT22;5574;48.786;10.120;2023-04-01T01:04:23;8.90;99.90
11043;DHT22;5574;48.786;10.120;2023-04-01T01:06:56;8.90;99.90
11043;DHT22;5574;48.786;10.120;2023-04-01T01:09:32;9.00;99.90
11043;DHT22;5574;48.786;10.120;2023-04-01T01:12:08;8.90;99.90
11043;DHT22;5574;48.786;10.120;2023-04-01T01:14:48;9.00;99.90
11043;DHT22;5574;48.786;10.120;2023-04-01T01:17:22;9.00;99.90
11043;DHT22;5574;48.786;10.120;2023-04-01T01:23:06;9.00;99.90
11043;DHT22;5574;48.786;10.120;2023-04-01T01:25:44;9.00;99.90
11043;DHT22;5574;48.786;10.120;2023-04-01T01:28:27;9.00;99.90
11043;DHT22;5574;48.786;10.120;2023-04-01T01:31:00;9.00;99.90
11043;DHT22;5574;48.786;10.120;2023-04-01T01:33:39;9.00;99.90
11043;DHT22;5574;48.786;10.120;2023-04-01T01:36:14;9.00;99.90
11043;DHT22;5574;48.786;10.120;2023-04-01T01:38:42;9.00;99.90
11043;DHT22;5574;48.786;10.120;2023-04-01T01:41:12;9.10;99.90
11043;DHT22;5574;48.786;10.120;2023-04-01T01:43:42;9.00;99.90
11043;DHT22;5574;48.786;10.120;2023-04-01T01:46:13;9.00;99.90
11043;DHT22;5574;48.786;10.120;2023-04-01T01:48:42;9.00;99.90
11043;DHT22;5574;48.786;10.120;2023-04-01T01:51:09;8.80;99.90
11043;DHT22;5574;48.786;10.120;2023-04-01T01:53:37;8.70;99.90
11043;DHT22;5574;48.786;10.120;2023-04-01T01:56:04;8.70;99.90
11043;DHT22;5574;48.786;10.120;2023-04-01T01:58:33;8.70;99.90
11043;DHT22;5574;48.786;10.120;2023-04-01T02:01:07;8.70;99.90
11043;DHT22;5574;48.786;10.120;2023-04-01T02:03:36;8.70;99.90
11043;DHT22;5574;48.786;10.120;2023-04-01T02:06:05;8.60;99.90
11043;DHT22;5574;48.786;10.120;2023-04-01T02:08:37;8.60;99.90
11043;DHT22;5574;48.786;10.120;2023-04-01T02:11:08;8.60;99.90
11043;DHT22;5574;48.786;10.120;2023-04-01T02:13:39;8.60;99.90
11043;DHT22;5574;48.786;10.120;2023-04-01T02:16:12;8.60;99.90
11043;DHT22;5574;48.786;10.120;2023-04-01T02:18:41;8.60;99.90
11043;DHT22;5574;48.786;10.120;2023-04-01T02:21:10;8.50;99.90
11043;DHT22;5574;48.786;10.120;2023-04-01T02:23:40;8.50;99.90
11043;DHT22;5574;48.786;10.120;2023-04-01T02:26:08;8.50;99.90
11043;DHT22;5574;48.786;10.120;2023-04-01T02:28:38;8.50;99.90
11043;DHT22;5574;48.786;10.120;2023-04-01T02:31:07;8.50;99.90
11043;DHT22;5574;48.786;10.120;2023-04-01T02:33:35;8.40;99.90
11043;DHT22;5574;48.786;10.120;2023-04-01T02:36:03;8.40;99.90
11043;DHT22;5574;48.786;10.120;2023-04-01T02:38:30;8.40;99.90
11043;DHT22;5574;48.786;10.120;2023-04-01T02:41:00;8.40;99.90
11043;DHT22;5574;48.786;10.120;2023-04-01T02:43:29;8.40;99.90
11043;DHT22;5574;48.786;10.120;2023-04-01T02:45:55;8.40;99.90
11043;DHT22;5574;48.786;10.120;2023-04-01T02:48:22;8.40;99.90
11043;DHT22;5574;48.786;10.120;2023-04-01T02:50:49;8.30;99.90
11043;DHT22;5574;48.786;10.120;2023-04-01T02:53:16;8.30;99.90
11043;DHT22;5574;48.786;10.120;2023-04-01T02:55:43;8.30;99.90
11043;DHT22;5574;48.786;10.120;2023-04-01T02:58:11;8.30;99.90
11043;DHT22;5574;48.786;10.120;2023-04-01T03:00:38;8.30;99.90
11043;DHT22;5574;48.786;10.120;2023-04-01T03:03:05;8.30;99.90
11043;DHT22;5574;48.786;10.120;2023-04-01T03:05:32;8.30;99.90
11043;DHT22;5574;48.786;10.120;2023-04-01T03:07:58;8.30;99.90
11043;DHT22;5574;48.786;10.120;2023-04-01T03:10:25;8.30;99.90
11043;DHT22;5574;48.786;10.120;2023-04-01T03:12:52;8.30;99.90
11043;DHT22;5574;48.786;10.120;2023-04-01T03:15:20;8.30;99.90
11043;DHT22;5574;48.786;10.120;2023-04-01T03:17:47;8.30;99.90
11043;DHT22;5574;48.786;10.120;2023-04-01T03:20:14;8.30;99.90
11043;DHT22;5574;48.786;10.120;2023-04-01T03:22:40;8.30;99.90
11043;DHT22;5574;48.786;10.120;2023-04-01T03:25:08;8.30;99.90
11043;DHT22;5574;48.786;10.120;2023-04-01T03:27:35;8.20;99.90
11043;DHT22;5574;48.786;10.120;2023-04-01T03:30:02;8.20;99.90
11043;DHT22;5574;48.786;10.120;2023-04-01T03:32:30;8.20;99.90
11043;DHT22;5574;48.786;10.120;2023-04-01T03:34:56;8.20;99.90
11043;DHT22;5574;48.786;10.120;2023-04-01T03:37:23;8.20;99.90
11043;DHT22;5574;48.786;10.120;2023-04-01T03:39:50;8.20;99.90
11043;DHT22;5574;48.786;10.120;2023-04-01T03:42:17;8.20;99.90
11043;DHT22;5574;48.786;10.120;2023-04-01T03:44:44;8.20;99.90
11043;DHT22;5574;48.786;10.120;2023-04-01T03:47:10;8.20;99.90
11043;DHT22;5574;48.786;10.120;2023-04-01T03:49:38;8.20;99.90
11043;DHT22;5574;48.786;10.120;2023-04-01T03:52:09;8.20;99.90
11043;DHT22;5574;48.786;10.120;2023-04-01T03:54:36;8.20;99.90
11043;DHT22;5574;48.786;10.120;2023-04-01T03:57:02;8.20;99.90
11043;DHT22;5574;48.786;10.120;2023-04-01T03:59:29;8.30;99.90
11043;DHT22;5574;48.786;10.120;2023-04-01T04:01:56;8.20;99.90
11043;DHT22;5574;48.786;10.120;2023-04-01T04:04:22;8.30;99.90
11043;DHT22;5574;48.786;10.120;2023-04-01T04:06:50;8.30;99.90
11043;DHT22;5574;48.786;10.120;2023-04-01T04:09:17;8.30;99.90
11043;DHT22;5574;48.786;10.120;2023-04-01T04:11:44;8.30;99.90
11043;DHT22;5574;48.786;10.120;2023-04-01T04:14:10;8.30;99.90
11043;DHT22;5574;48.786;10.120;2023-04-01T04:16:37;8.30;99.90
11043;DHT22;5574;48.786;10.120;2023-04-01T04:19:04;8.30;99.90
11043;DHT22;5574;48.786;10.120;2023-04-01T04:21:31;8.30;99.90
11043;DHT22;5574;48.786;10.120;2023-04-01T04:24:00;8.30;99.90
11043;DHT22;5574;48.786;10.120;2023-04-01T04:26:27;8.40;99.90
11043;DHT22;5574;48.786;10.120;2023-04-01T04:28:54;8.40;99.90
11043;DHT22;5574;48.786;10.120;2023-04-01T04:31:23;8.30;99.90
11043;DHT22;5574;48.786;10.120;2023-04-01T04:33:51;8.40;99.90
11043;DHT22;5574;48.786;10.120;2023-04-01T04:36:18;8.30;99.90
11043;DHT22;5574;48.786;10.120;2023-04-01T04:38:45;8.30;99.90
11043;DHT22;5574;48.786;10.120;2023-04-01T04:41:15;8.30;99.90
11043;DHT22;5574;48.786;10.120;2023-04-01T04:43:49;8.30;99.90
11043;DHT22;5574;48.786;10.120;2023-04-01T04:46:16;8.30;99.90
11043;DHT22;5574;48.786;10.120;2023-04-01T04:48:43;8.20;99.90
11043;DHT22;5574;48.786;10.120;2023-04-01T04:51:13;8.30;99.90
11043;DHT22;5574;48.786;10.120;2023-04-01T04:53:40;8.20;99.90
11043;DHT22;5574;48.786;10.120;2023-04-01T04:56:06;8.20;99.90
11043;DHT22;5574;48.786;10.120;2023-04-01T04:58:35;8.20;99.90
11043;DHT22;5574;48.786;10.120;2023-04-01T05:01:06;8.10;99.90
11043;DHT22;5574;48.786;10.120;2023-04-01T05:03:32;8.10;99.90
11043;DHT22;5574;48.786;10.120;2023-04-01T05:05:59;8.20;99.90
11043;DHT22;5574;48.786;10.120;2023-04-01T05:08:26;8.10;99.90
11043;DHT22;5574;48.786;10.120;2023-04-01T05:10:52;8.20;99.90
11043;DHT22;5574;48.786;10.120;2023-04-01T05:13:19;8.20;99.90
11043;DHT22;5574;48.786;10.120;2023-04-01T05:15:48;8.20;99.90
11043;DHT22;5574;48.786;10.120;2023-04-01T05:18:14;8.20;99.90
11043;DHT22;5574;48.786;10.120;2023-04-01T05:20:46;8.20;99.90
11043;DHT22;5574;48.786;10.120;2023-04-01T05:23:13;8.30;99.90
11043;DHT22;5574;48.786;10.120;2023-04-01T05:25:39;8.30;99.90
11043;DHT22;5574;48.786;10.120;2023-04-01T05:28:06;8.30;99.90
11043;DHT22;5574;48.786;10.120;2023-04-01T05:30:33;8.30;99.90
11043;DHT22;5574;48.786;10.120;2023-04-01T05:33:01;8.40;99.90
11043;DHT22;5574;48.786;10.120;2023-04-01T05:35:28;8.40;99.90
11043;DHT22;5574;48.786;10.120;2023-04-01T05:37:54;8.40;99.90
11043;DHT22;5574;48.786;10.120;2023-04-01T05:40:21;8.40;99.90
11043;DHT22;5574;48.786;10.120;2023-04-01T05:42:48;8.40;99.90
11043;DHT22;5574;48.786;10.120;2023-04-01T05:45:15;8.40;99.90
11043;DHT22;5574;48.786;10.120;2023-04-01T05:47:41;8.50;99.90
11043;DHT22;5574;48.786;10.120;2023-04-01T05:50:10;8.50;99.90
11043;DHT22;5574;48.786;10.120;2023-04-01T05:52:37;8.70;99.90
11043;DHT22;5574;48.786;10.120;2023-04-01T05:55:05;8.70;99.90
11043;DHT22;5574;48.786;10.120;2023-04-01T05:57:32;8.90;99.90
11043;DHT22;5574;48.786;10.120;2023-04-01T05:59:59;9.00;99.90
11043;DHT22;5574;48.786;10.120;2023-04-01T06:02:25;9.00;99.90
11043;DHT22;5574;48.786;10.120;2023-04-01T06:04:59;9.00;99.90
11043;DHT22;5574;48.786;10.120;2023-04-01T06:07:29;9.00;99.90
11043;DHT22;5574;48.786;10.120;2023-04-01T06:09:56;9.10;99.90
11043;DHT22;5574;48.786;10.120;2023-04-01T06:12:36;9.10;99.90
11043;DHT22;5574;48.786;10.120;2023-04-01T06:15:20;9.20;99.90
11043;DHT22;5574;48.786;10.120;2023-04-01T06:21:21;9.20;99.90
11043;DHT22;5574;48.786;10.120;2023-04-01T06:24:00;9.30;99.90
11043;DHT22;5574;48.786;10.120;2023-04-01T06:26:33;9.20;99.90
11043;DHT22;5574;48.786;10.120;2023-04-01T06:29:22;9.20;99.90
11043;DHT22;5574;48.786;10.120;2023-04-01T06:32:17;9.20;99.90
11043;DHT22;5574;48.786;10.120;2023-04-01T06:34:58;9.20;99.90
11043;DHT22;5574;48.786;10.120;2023-04-01T06:37:44;9.20;99.90
11043;DHT22;5574;48.786;10.120;2023-04-01T06:43:21;9.30;99.90
11043;DHT22;5574;48.786;10.120;2023-04-01T06:45:55;9.30;99.90
11043;DHT22;5574;48.786;10.120;2023-04-01T06:48:38;9.40;99.90
11043;DHT22;5574;48.786;10.120;2023-04-01T06:51:14;9.40;99.90
11043;DHT22;5574;48.786;10.120;2023-04-01T06:53:49;9.30;99.90
11043;DHT22;5574;48.786;10.120;2023-04-01T06:56:23;9.30;99.90
11043;DHT22;5574;48.786;10.120;2023-04-01T06:58:53;9.30;99.90
11043;DHT22;5574;48.786;10.120;2023-04-01T07:01:24;9.30;99.90
11043;DHT22;5574;48.786;10.120;2023-04-01T07:03:55;9.30;99.90
11043;DHT22;5574;48.786;10.120;2023-04-01T07:06:27;9.40;99.90
11043;DHT22;5574;48.786;10.120;2023-04-01T07:08:58;9.40;99.90
11043;DHT22;5574;48.786;10.120;2023-04-01T07:11:30;9.40;99.90
11043;DHT22;5574;48.786;10.120;2023-04-01T07:14:00;9.50;99.90
11043;DHT22;5574;48.786;10.120;2023-04-01T07:16:31;9.50;99.90
11043;DHT22;5574;48.786;10.120;2023-04-01T07:19:02;9.50;99.90
11043;DHT22;5574;48.786;10.120;2023-04-01T07:21:34;9.50;99.90
11043;DHT22;5574;48.786;10.120;2023-04-01T07:24:05;9.50;99.90
11043;DHT22;5574;48.786;10.120;2023-04-01T07:26:34;9.50;99.90
11043;DHT22;5574;48.786;10.120;2023-04-01T07:29:01;9.60;99.90
11043;DHT22;5574;48.786;10.120;2023-04-01T07:31:44;9.50;99.90
11043;DHT22;5574;48.786;10.120;2023-04-01T07:34:18;9.50;99.90
11043;DHT22;5574;48.786;10.120;2023-04-01T07:36:50;9.60;99.90
11043;DHT22;5574;48.786;10.120;2023-04-01T07:39:27;9.50;99.90
11043;DHT22;5574;48.786;10.120;2023-04-01T07:42:01;9.50;99.90
11043;DHT22;5574;48.786;10.120;2023-04-01T07:44:38;9.50;99.90
11043;DHT22;5574;48.786;10.120;2023-04-01T07:47:17;9.50;99.90
11043;DHT22;5574;48.786;10.120;2023-04-01T07:49:57;9.50;99.90
11043;DHT22;5574;48.786;10.120;2023-04-01T07:52:32;9.50;99.90
11043;DHT22;5574;48.786;10.120;2023-04-01T07:55:07;9.50;99.90
11043;DHT22;5574;48.786;10.120;2023-04-01T07:57:41;9.50;99.90
11043;DHT22;5574;48.786;10.120;2023-04-01T08:00:12;9.50;99.90
11043;DHT22;5574;48.786;10.120;2023-04-01T08:05:40;9.40;99.90
11043;DHT22;5574;48.786;10.120;2023-04-01T08:08:13;9.30;99.90
11043;DHT22;5574;48.786;10.120;2023-04-01T08:10:47;9.30;99.90
11043;DHT22;5574;48.786;10.120;2023-04-01T08:13:24;9.30;99.90
11043;DHT22;5574;48.786;10.120;2023-04-01T08:15:57;9.30;99.90
11043;DHT22;5574;48.786;10.120;2023-04-01T08:18:35;9.30;99.90
11043;DHT22;5574;48.786;10.120;2023-04-01T08:21:19;9.30;99.90
11043;DHT22;5574;48.786;10.120;2023-04-01T08:23:49;9.30;99.90
11043;DHT22;5574;48.786;10.120;2023-04-01T08:26:24;9.30;99.90
11043;DHT22;5574;48.786;10.120;2023-04-01T08:28:59;9.40;99.90
11043;DHT22;5574;48.786;10.120;2023-04-01T08:31:31;9.40;99.90
11043;DHT22;5574;48.786;10.120;2023-04-01T08:34:01;9.40;99.90
11043;DHT22;5574;48.786;10.120;2023-04-01T08:36:33;9.50;99.90
11043;DHT22;5574;48.786;10.120;2023-04-01T08:39:05;9.50;99.90
11043;DHT22;5574;48.786;10.120;2023-04-01T08:42:04;9.50;99.90
11043;DHT22;5574;48.786;10.120;2023-04-01T08:44:55;9.50;99.90
11043;DHT22;5574;48.786;10.120;2023-04-01T08:50:36;9.40;99.90
11043;DHT22;5574;48.786;10.120;2023-04-01T08:53:11;9.50;99.90
11043;DHT22;5574;48.786;10.120;2023-04-01T08:55:56;9.50;99.90
11043;DHT22;5574;48.786;10.120;2023-04-01T09:04:30;9.50;99.90
11043;DHT22;5574;48.786;10.120;2023-04-01T09:07:06;9.50;99.90
11043;DHT22;5574;48.786;10.120;2023-04-01T09:12:54;9.50;99.90
11043;DHT22;5574;48.786;10.120;2023-04-01T09:15:37;9.50;99.90
11043;DHT22;5574;48.786;10.120;2023-04-01T09:21:43;9.40;99.90
11043;DHT22;5574;48.786;10.120;2023-04-01T09:27:26;9.40;99.90
11043;DHT22;5574;48.786;10.120;2023-04-01T09:33:28;9.30;99.90
11043;DHT22;5574;48.786;10.120;2023-04-01T09:36:04;9.40;99.90
11043;DHT22;5574;48.786;10.120;2023-04-01T09:38:46;9.40;99.90
11043;DHT22;5574;48.786;10.120;2023-04-01T09:41:23;9.40;99.90
11043;DHT22;5574;48.786;10.120;2023-04-01T09:44:01;9.40;99.90
11043;DHT22;5574;48.786;10.120;2023-04-01T09:46:36;9.30;99.90
11043;DHT22;5574;48.786;10.120;2023-04-01T09:49:35;9.50;99.90
11043;DHT22;5574;48.786;10.120;2023-04-01T09:52:23;9.60;99.90
11043;DHT22;5574;48.786;10.120;2023-04-01T09:55:03;9.60;99.90
11043;DHT22;5574;48.786;10.120;2023-04-01T10:01:13;9.80;99.90
11043;DHT22;5574;48.786;10.120;2023-04-01T10:13:27;9.80;99.90
11043;DHT22;5574;48.786;10.120;2023-04-01T10:19:24;9.90;99.90
11043;DHT22;5574;48.786;10.120;2023-04-01T10:22:21;9.90;99.90
11043;DHT22;5574;48.786;10.120;2023-04-01T10:25:10;10.00;99.90
11043;DHT22;5574;48.786;10.120;2023-04-01T10:28:10;9.90;99.90
11043;DHT22;5574;48.786;10.120;2023-04-01T10:31:06;9.90;99.90
11043;DHT22;5574;48.786;10.120;2023-04-01T10:34:05;9.80;99.90
11043;DHT22;5574;48.786;10.120;2023-04-01T10:36:52;9.80;99.90
11043;DHT22;5574;48.786;10.120;2023-04-01T10:39:56;9.80;99.90
11043;DHT22;5574;48.786;10.120;2023-04-01T10:43:03;9.90;99.90
11043;DHT22;5574;48.786;10.120;2023-04-01T10:46:04;9.80;99.90
11043;DHT22;5574;48.786;10.120;2023-04-01T10:49:28;9.80;99.90
11043;DHT22;5574;48.786;10.120;2023-04-01T10:55:36;9.70;99.90
11043;DHT22;5574;48.786;10.120;2023-04-01T11:01:46;9.80;99.90
11043;DHT22;5574;48.786;10.120;2023-04-01T11:04:57;9.80;99.90
11043;DHT22;5574;48.786;10.120;2023-04-01T11:08:01;9.80;99.90
11043;DHT22;5574;48.786;10.120;2023-04-01T11:14:30;9.90;99.90
11043;DHT22;5574;48.786;10.120;2023-04-01T11:17:27;9.80;99.90
11043;DHT22;5574;48.786;10.120;2023-04-01T11:20:18;9.80;99.90
11043;DHT22;5574;48.786;10.120;2023-04-01T11:23:11;9.80;99.90
11043;DHT22;5574;48.786;10.120;2023-04-01T11:26:00;9.70;99.90
11043;DHT22;5574;48.786;10.120;2023-04-01T11:29:15;9.60;99.90
11043;DHT22;5574;48.786;10.120;2023-04-01T11:31:55;9.60;99.90
11043;DHT22;5574;48.786;10.120;2023-04-01T11:34:43;9.60;99.90
11043;DHT22;5574;48.786;10.120;2023-04-01T11:37:24;9.60;99.90
11043;DHT22;5574;48.786;10.120;2023-04-01T11:40:02;9.50;99.90
11043;DHT22;5574;48.786;10.120;2023-04-01T11:42:39;9.50;99.90
11043;DHT22;5574;48.786;10.120;2023-04-01T11:45:16;9.50;99.90
11043;DHT22;5574;48.786;10.120;2023-04-01T11:48:11;9.40;99.90
11043;DHT22;5574;48.786;10.120;2023-04-01T11:50:53;9.40;99.90
11043;DHT22;5574;48.786;10.120;2023-04-01T11:53:32;9.40;99.90
11043;DHT22;5574;48.786;10.120;2023-04-01T11:56:17;9.40;99.90
11043;DHT22;5574;48.786;10.120;2023-04-01T11:59:12;9.40;99.90
11043;DHT22;5574;48.786;10.120;2023-04-01T12:01:48;9.50;99.90
11043;DHT22;5574;48.786;10.120;2023-04-01T12:04:36;9.40;99.90
11043;DHT22;5574;48.786;10.120;2023-04-01T12:07:19;9.50;99.90
11043;DHT22;5574;48.786;10.120;2023-04-01T12:09:55;9.50;99.90
11043;DHT22;5574;48.786;10.120;2023-04-01T12:12:29;9.50;99.90
11043;DHT22;5574;48.786;10.120;2023-04-01T12:15:13;9.40;99.90
11043;DHT22;5574;48.786;10.120;2023-04-01T12:17:46;9.50;99.90
11043;DHT22;5574;48.786;10.120;2023-04-01T12:20:33;9.40;99.90
11043;DHT22;5574;48.786;10.120;2023-04-01T12:23:15;9.50;99.90
11043;DHT22;5574;48.786;10.120;2023-04-01T12:26:08;9.50;99.90
11043;DHT22;5574;48.786;10.120;2023-04-01T12:28:47;9.60;99.90
11043;DHT22;5574;48.786;10.120;2023-04-01T12:31:27;9.70;99.90
11043;DHT22;5574;48.786;10.120;2023-04-01T12:34:25;9.60;99.90
11043;DHT22;5574;48.786;10.120;2023-04-01T12:37:05;9.60;99.90
11043;DHT22;5574;48.786;10.120;2023-04-01T12:40:02;9.70;99.90
11043;DHT22;5574;48.786;10.120;2023-04-01T12:42:44;9.80;99.90
11043;DHT22;5574;48.786;10.120;2023-04-01T12:45:28;9.90;99.90
11043;DHT22;5574;48.786;10.120;2023-04-01T12:51:09;10.00;99.90
11043;DHT22;5574;48.786;10.120;2023-04-01T12:53:57;10.10;99.90
11043;DHT22;5574;48.786;10.120;2023-04-01T12:56:35;10.10;99.90
11043;DHT22;5574;48.786;10.120;2023-04-01T12:59:23;10.10;99.90
11043;DHT22;5574;48.786;10.120;2023-04-01T13:02:00;10.10;99.90
11043;DHT22;5574;48.786;10.120;2023-04-01T13:04:56;10.10;99.90
11043;DHT22;5574;48.786;10.120;2023-04-01T13:07:41;10.10;99.90
11043;DHT22;5574;48.786;10.120;2023-04-01T13:10:20;10.20;99.90
11043;DHT22;5574;48.786;10.120;2023-04-01T13:13:21;10.20;99.90
11043;DHT22;5574;48.786;10.120;2023-04-01T13:15:58;10.30;99.90
11043;DHT22;5574;48.786;10.120;2023-04-01T13:18:33;10.30;99.90
11043;DHT22;5574;48.786;10.120;2023-04-01T13:21:13;10.30;99.90
11043;DHT22;5574;48.786;10.120;2023-04-01T13:23:54;10.30;99.90
11043;DHT22;5574;48.786;10.120;2023-04-01T13:26:27;10.30;99.90
11043;DHT22;5574;48.786;10.120;2023-04-01T13:29:01;10.20;99.90
11043;DHT22;5574;48.786;10.120;2023-04-01T13:31:42;10.20;99.90
11043;DHT22;5574;48.786;10.120;2023-04-01T13:34:25;10.10;99.90
11043;DHT22;5574;48.786;10.120;2023-04-01T13:37:05;10.10;99.90
11043;DHT22;5574;48.786;10.120;2023-04-01T13:40:05;10.00;99.90
11043;DHT22;5574;48.786;10.120;2023-04-01T13:42:41;10.10;99.90
11043;DHT22;5574;48.786;10.120;2023-04-01T13:45:14;10.10;99.90
11043;DHT22;5574;48.786;10.120;2023-04-01T13:48:02;10.10;99.90
11043;DHT22;5574;48.786;10.120;2023-04-01T13:50:37;10.10;99.90
11043;DHT22;5574;48.786;10.120;2023-04-01T13:53:36;10.10;99.90
11043;DHT22;5574;48.786;10.120;2023-04-01T13:56:24;10.10;99.90
11043;DHT22;5574;48.786;10.120;2023-04-01T13:59:26;10.20;99.90
11043;DHT22;5574;48.786;10.120;2023-04-01T14:02:07;10.10;99.90
11043;DHT22;5574;48.786;10.120;2023-04-01T14:04:53;10.10;99.90
11043;DHT22;5574;48.786;10.120;2023-04-01T14:07:39;10.10;99.90
11043;DHT22;5574;48.786;10.120;2023-04-01T14:10:17;10.10;99.90
11043;DHT22;5574;48.786;10.120;2023-04-01T14:12:49;10.10;99.90
11043;DHT22;5574;48.786;10.120;2023-04-01T14:15:40;10.10;99.90
11043;DHT22;5574;48.786;10.120;2023-04-01T14:21:08;10.10;99.90
11043;DHT22;5574;48.786;10.120;2023-04-01T14:23:59;10.10;99.90
11043;DHT22;5574;48.786;10.120;2023-04-01T14:29:44;10.20;99.90
11043;DHT22;5574;48.786;10.120;2023-04-01T14:32:18;10.20;99.90
11043;DHT22;5574;48.786;10.120;2023-04-01T14:34:59;10.10;99.90
11043;DHT22;5574;48.786;10.120;2023-04-01T14:38:01;10.10;99.90
11043;DHT22;5574;48.786;10.120;2023-04-01T14:40:44;10.00;99.90
11043;DHT22;5574;48.786;10.120;2023-04-01T14:43:33;10.00;99.90
11043;DHT22;5574;48.786;10.120;2023-04-01T14:46:23;9.80;99.90
11043;DHT22;5574;48.786;10.120;2023-04-01T14:48:57;9.80;99.90
11043;DHT22;5574;48.786;10.120;2023-04-01T14:51:30;9.80;99.90
11043;DHT22;5574;48.786;10.120;2023-04-01T14:54:03;9.70;99.90
11043;DHT22;5574;48.786;10.120;2023-04-01T14:56:39;9.70;99.90
11043;DHT22;5574;48.786;10.120;2023-04-01T14:59:10;9.70;99.90
11043;DHT22;5574;48.786;10.120;2023-04-01T15:01:46;9.80;99.90
11043;DHT22;5574;48.786;10.120;2023-04-01T15:04:35;9.80;99.90
11043;DHT22;5574;48.786;10.120;2023-04-01T15:07:18;9.80;99.90
11043;DHT22;5574;48.786;10.120;2023-04-01T15:09:54;9.80;99.90
11043;DHT22;5574;48.786;10.120;2023-04-01T15:12:28;9.80;99.90
11043;DHT22;5574;48.786;10.120;2023-04-01T15:15:09;9.80;99.90
11043;DHT22;5574;48.786;10.120;2023-04-01T15:17:48;9.80;99.90
11043;DHT22;5574;48.786;10.120;2023-04-01T15:23:20;9.70;99.90
11043;DHT22;5574;48.786;10.120;2023-04-01T15:26:05;9.70;99.90
11043;DHT22;5574;48.786;10.120;2023-04-01T15:28:38;9.70;99.90
11043;DHT22;5574;48.786;10.120;2023-04-01T15:31:11;9.70;99.90
11043;DHT22;5574;48.786;10.120;2023-04-01T15:36:35;9.70;99.90
11043;DHT22;5574;48.786;10.120;2023-04-01T15:39:12;9.70;99.90
11043;DHT22;5574;48.786;10.120;2023-04-01T15:41:46;9.70;99.90
11043;DHT22;5574;48.786;10.120;2023-04-01T15:44:46;9.80;99.90
11043;DHT22;5574;48.786;10.120;2023-04-01T15:47:33;9.80;99.90
11043;DHT22;5574;48.786;10.120;2023-04-01T15:53:06;9.80;99.90
11043;DHT22;5574;48.786;10.120;2023-04-01T15:55:39;9.80;99.90
11043;DHT22;5574;48.786;10.120;2023-04-01T15:58:30;9.80;99.90
11043;DHT22;5574;48.786;10.120;2023-04-01T16:01:07;9.80;99.90
11043;DHT22;5574;48.786;10.120;2023-04-01T16:03:40;9.80;99.90
11043;DHT22;5574;48.786;10.120;2023-04-01T16:06:38;9.80;99.90
11043;DHT22;5574;48.786;10.120;2023-04-01T16:12:16;9.70;99.90
11043;DHT22;5574;48.786;10.120;2023-04-01T16:14:55;9.70;99.90
11043;DHT22;5574;48.786;10.120;2023-04-01T16:17:38;9.70;99.90
11043;DHT22;5574;48.786;10.120;2023-04-01T16:20:19;9.70;99.90
11043;DHT22;5574;48.786;10.120;2023-04-01T16:22:54;9.50;99.90
11043;DHT22;5574;48.786;10.120;2023-04-01T16:25:31;9.40;99.90
11043;DHT22;5574;48.786;10.120;2023-04-01T16:28:10;9.30;99.90
11043;DHT22;5574;48.786;10.120;2023-04-01T16:30:42;9.20;99.90
11043;DHT22;5574;48.786;10.120;2023-04-01T16:33:14;9.10;99.90
11043;DHT22;5574;48.786;10.120;2023-04-01T16:35:47;9.10;99.90
11043;DHT22;5574;48.786;10.120;2023-04-01T16:38:24;9.10;99.90
11043;DHT22;5574;48.786;10.120;2023-04-01T16:41:05;9.00;99.90
11043;DHT22;5574;48.786;10.120;2023-04-01T16:43:39;9.00;99.90
11043;DHT22;5574;48.786;10.120;2023-04-01T16:46:33;8.90;99.90
11043;DHT22;5574;48.786;10.120;2023-04-01T16:49:13;8.90;99.90
11043;DHT22;5574;48.786;10.120;2023-04-01T16:51:47;8.80;99.90
11043;DHT22;5574;48.786;10.120;2023-04-01T16:54:28;8.80;99.90
11043;DHT22;5574;48.786;10.120;2023-04-01T16:57:02;8.80;99.90
11043;DHT22;5574;48.786;10.120;2023-04-01T16:59:35;8.80;99.90
11043;DHT22;5574;48.786;10.120;2023-04-01T17:02:08;8.70;99.90
11043;DHT22;5574;48.786;10.120;2023-04-01T17:04:39;8.80;99.90
11043;DHT22;5574;48.786;10.120;2023-04-01T17:07:21;8.80;99.90
11043;DHT22;5574;48.786;10.120;2023-04-01T17:10:06;8.80;99.90
11043;DHT22;5574;48.786;10.120;2023-04-01T17:12:42;8.70;99.90
11043;DHT22;5574;48.786;10.120;2023-04-01T17:15:19;8.70;99.90
11043;DHT22;5574;48.786;10.120;2023-04-01T17:17:53;8.70;99.90
11043;DHT22;5574;48.786;10.120;2023-04-01T17:20:41;8.70;99.90
11043;DHT22;5574;48.786;10.120;2023-04-01T17:23:25;8.70;99.90
11043;DHT22;5574;48.786;10.120;2023-04-01T17:26:03;8.70;99.90
11043;DHT22;5574;48.786;10.120;2023-04-01T17:28:41;8.70;99.90
11043;DHT22;5574;48.786;10.120;2023-04-01T17:31:17;8.70;99.90
11043;DHT22;5574;48.786;10.120;2023-04-01T17:33:58;8.70;99.90
11043;DHT22;5574;48.786;10.120;2023-04-01T17:36:36;8.70;99.90
11043;DHT22;5574;48.786;10.120;2023-04-01T17:39:17;8.70;99.90
11043;DHT22;5574;48.786;10.120;2023-04-01T17:41:52;8.70;99.90
11043;DHT22;5574;48.786;10.120;2023-04-01T17:47:30;8.70;99.90
11043;DHT22;5574;48.786;10.120;2023-04-01T17:50:07;8.80;99.90
11043;DHT22;5574;48.786;10.120;2023-04-01T17:52:39;8.80;99.90
11043;DHT22;5574;48.786;10.120;2023-04-01T17:58:13;8.80;99.90
11043;DHT22;5574;48.786;10.120;2023-04-01T18:00:55;8.80;99.90
11043;DHT22;5574;48.786;10.120;2023-04-01T18:03:37;8.80;99.90
11043;DHT22;5574;48.786;10.120;2023-04-01T18:06:13;8.80;99.90
11043;DHT22;5574;48.786;10.120;2023-04-01T18:08:49;8.80;99.90
11043;DHT22;5574;48.786;10.120;2023-04-01T18:11:32;8.80;99.90